createdAt,value
2023-09-13T00:04:42.990Z,3.45
2023-09-13T00:09:44.687Z,2.72
2023-09-13T00:14:48.764Z,2.88
2023-09-13T00:19:50.631Z,3.00
2023-09-13T00:24:52.264Z,3.03
2023-09-13T00:29:54.165Z,2.80
2023-09-13T00:34:55.795Z,3.13
2023-09-13T00:39:57.458Z,2.92
2023-09-13T00:44:59.141Z,3.17
2023-09-13T00:50:01.260Z,2.75
2023-09-13T00:55:05.663Z,3.10
2023-09-13T01:00:10.740Z,2.80
2023-09-13T01:05:15.246Z,2.80
2023-09-13T01:10:16.936Z,2.80
2023-09-13T01:15:18.808Z,2.90
2023-09-13T01:20:45.916Z,3.25
2023-09-13T01:26:08.736Z,2.70
2023-09-13T01:31:11.724Z,3.13
2023-09-13T01:36:13.802Z,2.90
2023-09-13T01:41:26.242Z,3.08
2023-09-13T01:46:36.501Z,2.72
2023-09-13T01:51:38.559Z,2.80
2023-09-13T01:56:40.223Z,2.95
2023-09-13T02:01:41.949Z,3.20
2023-09-13T02:06:43.751Z,2.97
2023-09-13T02:11:45.433Z,3.08
2023-09-13T02:16:47.145Z,3.15
2023-09-13T02:21:49.029Z,2.70
2023-09-13T02:26:56.065Z,2.60
2023-09-13T02:31:57.867Z,2.63
2023-09-13T02:36:59.820Z,2.70
2023-09-13T02:42:03.454Z,2.90
2023-09-13T02:47:05.372Z,2.80
2023-09-13T02:52:07.251Z,3.10
2023-09-13T02:57:09.202Z,3.15
2023-09-13T03:02:10.980Z,2.97
2023-09-13T03:07:12.652Z,2.92
2023-09-13T03:12:14.528Z,2.90
2023-09-13T03:17:16.237Z,3.05
2023-09-13T03:22:19.835Z,3.20
2023-09-13T03:27:21.520Z,3.25
2023-09-13T03:32:23.122Z,3.00
2023-09-13T03:37:24.956Z,3.72
2023-09-13T03:42:26.677Z,2.75
2023-09-13T03:47:28.312Z,2.90
2023-09-13T03:52:30.336Z,2.78
2023-09-13T03:57:31.944Z,2.90
2023-09-13T04:02:33.835Z,2.70
2023-09-13T04:07:35.566Z,3.15
2023-09-13T04:12:37.689Z,3.70
2023-09-13T04:17:39.399Z,3.20
2023-09-13T04:22:41.092Z,3.20
2023-09-13T04:27:46.395Z,3.00
2023-09-13T04:32:48.633Z,3.03
2023-09-13T04:37:50.362Z,3.13
2023-09-13T04:43:07.370Z,3.03
2023-09-13T04:48:09.163Z,2.95
2023-09-13T04:53:10.831Z,3.63
2023-09-13T04:58:12.668Z,3.08
2023-09-13T05:03:14.351Z,3.15
2023-09-13T05:08:16.746Z,3.33
2023-09-13T05:13:18.397Z,3.30
2023-09-13T05:18:20.232Z,3.08
2023-09-13T05:23:21.880Z,3.22
2023-09-13T05:28:23.908Z,3.45
2023-09-13T05:33:26.530Z,3.20
2023-09-13T05:38:28.198Z,3.75
2023-09-13T05:43:30.433Z,3.70
2023-09-13T05:48:32.595Z,3.22
2023-09-13T05:53:34.225Z,3.60
2023-09-13T05:58:35.852Z,3.40
2023-09-13T06:03:37.538Z,3.28
2023-09-13T06:08:39.142Z,3.42
2023-09-13T06:13:40.783Z,3.45
2023-09-13T06:18:42.454Z,3.78
2023-09-13T06:23:45.141Z,3.85
2023-09-13T06:28:47.286Z,4.13
2023-09-13T06:33:49.122Z,4.00
2023-09-13T06:38:51.535Z,4.03
2023-09-13T06:49:02.427Z,4.15
2023-09-13T06:54:06.063Z,3.70
2023-09-13T06:59:10.514Z,3.90
2023-09-13T07:04:18.288Z,3.97
2023-09-13T07:09:24.555Z,3.95
2023-09-13T07:14:26.220Z,3.72
2023-09-13T07:19:28.144Z,3.50
2023-09-13T07:24:30.282Z,4.13
2023-09-13T07:29:31.988Z,4.00
2023-09-13T07:34:33.797Z,3.75
2023-09-13T07:39:35.560Z,4.13
2023-09-13T07:44:37.281Z,3.08
2023-09-13T07:49:38.989Z,3.72
2023-09-13T07:54:40.790Z,3.88
2023-09-13T07:59:42.452Z,3.47
2023-09-13T08:04:44.183Z,3.80
2023-09-13T08:09:46.104Z,3.58
2023-09-13T08:14:47.811Z,3.70
2023-09-13T08:19:51.405Z,3.90
2023-09-13T08:24:53.455Z,4.05
2023-09-13T08:29:55.303Z,3.80
2023-09-13T08:34:57.310Z,4.15
2023-09-13T08:39:59.000Z,4.45
2023-09-13T08:45:01.202Z,5.07
2023-09-13T08:50:05.174Z,3.80
2023-09-13T08:55:08.530Z,3.97
2023-09-13T09:00:10.775Z,4.32
2023-09-13T09:05:13.941Z,4.40
2023-09-13T09:10:16.656Z,4.00
2023-09-13T09:15:19.802Z,3.85
2023-09-13T09:20:22.054Z,4.65
2023-09-13T09:25:25.940Z,3.83
2023-09-13T09:30:35.158Z,4.30
2023-09-13T09:35:37.726Z,4.53
2023-09-13T09:40:39.670Z,4.38
2023-09-13T09:45:41.777Z,3.78
2023-09-13T09:50:48.176Z,4.20
2023-09-13T09:55:51.673Z,4.10
2023-09-13T10:00:55.164Z,3.90
2023-09-13T10:06:14.894Z,4.03
2023-09-13T10:11:24.067Z,4.15
2023-09-13T10:16:30.349Z,4.05
2023-09-13T10:21:34.114Z,3.58
2023-09-13T10:26:36.593Z,3.72
2023-09-13T10:31:44.798Z,4.15
2023-09-13T10:36:52.527Z,3.63
2023-09-13T10:42:05.748Z,3.33
2023-09-13T10:47:09.247Z,2.80
2023-09-13T10:52:11.061Z,3.35
2023-09-13T10:57:16.292Z,2.42
2023-09-13T11:06:21.306Z,2.42
2023-09-13T11:11:26.160Z,2.60
2023-09-13T11:16:29.475Z,2.80
2023-09-13T11:21:47.592Z,2.55
2023-09-13T11:26:50.063Z,2.40
2023-09-13T11:32:02.241Z,2.28
2023-09-13T11:37:08.979Z,2.20
2023-09-13T11:42:21.008Z,2.03
2023-09-13T11:47:27.496Z,2.50
2023-09-13T11:53:00.634Z,2.28
2023-09-13T11:58:12.477Z,2.20
2023-09-13T12:03:34.971Z,3.13
2023-09-13T12:08:46.385Z,3.00
2023-09-13T12:14:06.947Z,2.80
2023-09-13T12:19:13.410Z,3.13
2023-09-13T12:24:24.869Z,2.70
2023-09-13T12:29:26.684Z,3.30
2023-09-13T12:34:28.574Z,3.30
2023-09-13T12:39:30.303Z,3.00
2023-09-13T12:44:33.733Z,3.30
2023-09-13T12:49:40.009Z,3.00
2023-09-13T12:54:43.548Z,3.20
2023-09-13T12:59:46.592Z,3.20
2023-09-13T13:04:48.460Z,3.33
2023-09-13T13:09:53.946Z,3.38
2023-09-13T13:14:55.859Z,3.20
2023-09-13T13:19:57.924Z,3.38
2023-09-13T13:24:59.808Z,3.13
2023-09-13T13:30:01.493Z,2.78
2023-09-13T13:35:05.253Z,3.35
2023-09-13T16:53:46.470Z,2.10
2023-09-13T16:58:48.099Z,2.40
2023-09-13T17:03:50.315Z,2.22
2023-09-13T17:08:52.384Z,2.50
2023-09-13T17:13:55.049Z,2.13
2023-09-13T17:18:56.706Z,1.95
2023-09-13T17:23:59.309Z,2.10
2023-09-13T17:29:00.942Z,1.90
2023-09-13T17:34:03.907Z,2.10
2023-09-13T17:39:09.518Z,1.73
2023-09-13T17:44:11.163Z,2.13
2023-09-13T17:49:14.530Z,2.03
2023-09-13T17:54:16.151Z,1.90
2023-09-13T17:59:17.764Z,1.80
2023-09-13T18:04:19.502Z,2.10
2023-09-13T18:09:21.414Z,2.00
2023-09-13T18:14:23.035Z,1.98
2023-09-13T18:19:25.460Z,2.10
2023-09-13T18:24:38.949Z,2.05
2023-09-13T18:29:45.104Z,2.13
2023-09-13T18:34:46.970Z,1.83
2023-09-13T18:39:48.889Z,1.80
2023-09-13T18:44:50.789Z,2.13
2023-09-13T18:49:53.133Z,2.13
2023-09-13T18:54:55.109Z,2.10
2023-09-13T18:59:57.427Z,2.20
2023-09-13T19:04:59.099Z,1.77
2023-09-13T19:10:01.905Z,2.28
2023-09-13T19:15:04.152Z,2.17
2023-09-13T19:20:09.418Z,2.13
2023-09-13T19:25:11.317Z,2.50
2023-09-13T19:30:13.287Z,1.92
2023-09-13T19:35:15.738Z,2.13
2023-09-13T19:40:17.915Z,2.10
2023-09-13T19:45:23.311Z,2.30
2023-09-13T19:50:25.097Z,2.28
2023-09-13T19:55:27.824Z,1.83
2023-09-13T20:00:30.603Z,2.38
2023-09-13T20:05:36.119Z,1.95
2023-09-13T20:10:37.797Z,2.25
2023-09-13T20:15:39.482Z,2.20
2023-09-13T20:20:41.240Z,2.42
2023-09-13T20:25:42.945Z,2.38
2023-09-13T20:30:44.700Z,2.45
2023-09-13T20:35:46.795Z,2.20
2023-09-13T20:40:48.443Z,2.10
2023-09-13T20:45:50.492Z,2.15
2023-09-13T20:50:55.454Z,2.30
2023-09-13T20:55:57.115Z,2.10
2023-09-13T21:00:59.658Z,2.10
2023-09-13T21:06:01.453Z,2.03
2023-09-13T21:11:06.437Z,2.60
2023-09-13T21:16:09.446Z,2.30
2023-09-13T21:21:11.242Z,2.30
2023-09-13T21:26:14.385Z,2.00
2023-09-13T21:31:19.585Z,2.47
2023-09-13T21:36:21.445Z,2.50
2023-09-13T21:41:23.098Z,2.97
2023-09-13T21:46:24.751Z,2.78
2023-09-13T21:51:26.639Z,2.53
2023-09-13T21:56:28.371Z,2.47
2023-09-13T22:01:30.979Z,2.88
2023-09-13T22:06:33.490Z,2.53
2023-09-13T22:11:35.336Z,2.78
2023-09-13T22:16:37.178Z,2.80
2023-09-13T22:21:38.950Z,3.10
2023-09-13T22:26:40.711Z,3.40
2023-09-13T22:31:42.570Z,3.63
2023-09-13T22:36:44.733Z,3.35
2023-09-13T22:41:46.470Z,3.25
2023-09-13T22:46:48.206Z,3.45
2023-09-13T22:51:50.258Z,3.50
2023-09-13T22:56:52.299Z,3.30
2023-09-13T23:01:54.374Z,2.75
2023-09-13T23:06:56.128Z,3.95
2023-09-13T23:11:57.775Z,3.53
2023-09-13T23:16:59.511Z,3.05
2023-09-13T23:22:01.174Z,3.15
2023-09-13T23:27:03.745Z,3.30
2023-09-13T23:32:06.193Z,4.43
2023-09-13T23:37:07.972Z,4.70
2023-09-13T23:42:09.681Z,4.65
2023-09-13T23:47:11.345Z,4.85
2023-09-13T23:52:13.684Z,4.65
2023-09-13T23:57:15.335Z,4.50
